Time;durP1;ratioP1;P1;durP2;ratioP2;P2;SDS_P1;SDS_P2;PMS_P1;PMS_P2;Temp;Humidity;BMP_temperature;BMP_pressure;BME280_temperature;BME280_humidity;BME280_pressure;Samples;Min_cycle;Max_cycle;Signal;HPM_P1;HPM_P2
2023/03/21 05:06:43;;;;;;;;;;;;;;;24.83;27.83;100732.94;5063676;27;1472618;-19
2023/03/21 05:09:41;;;;;;;;;;;;;;;27.09;24.70;100727.44;5065381;27;1429651;-28
2023/03/21 05:12:07;;;;;;;;;;;;;;;27.91;23.22;100718.63;5095127;28;1195;-27
2023/03/21 05:14:33;;;;;;;;;;;;;;;28.48;22.56;100728.84;5095600;28;1227;-29
2023/03/21 05:17:03;;;;;;;;;;;;;;;28.27;22.52;100733.19;5106424;28;1050;-33
2023/03/21 05:19:33;;;;;;;;;;;;;;;28.07;22.92;100736.53;5075554;28;1259;-26
2023/03/21 05:22:03;;;;;;;;;;;;;;;27.02;24.05;100732.78;5088641;28;1237;-28
2023/03/21 05:24:29;;;;;;;;;;;;;;;26.33;25.09;100733.56;5095419;28;1192;-27
2023/03/21 05:26:55;;;;;;;;;;;;;;;28.17;22.98;100733.50;5098444;28;1202;-29
2023/03/21 05:29:23;;;;;;;;;;;;;;;27.86;22.90;100719.19;5074933;28;1914;-29
2023/03/21 05:31:55;;;;;;;;;;;;;;;28.22;22.71;100712.16;5090483;28;1177;-31
2023/03/21 05:34:21;;;;;;;;;;;;;;;28.02;22.98;100714.63;5113179;28;1039;-18
2023/03/21 05:36:46;;;;;;;;;;;;;;;27.86;23.26;100721.91;5079144;28;1188;-18
2023/03/21 05:39:12;;;;;;;;;;;;;;;28.32;22.72;100729.91;5084614;28;1211;-18
2023/03/21 05:41:44;;;;;;;;;;;;;;;28.98;22.04;100743.50;5083132;28;1082;-17
2023/03/21 05:44:09;;;;;;;;;;;;;;;29.34;21.52;100734.38;5085287;28;1111;-17
2023/03/21 05:46:36;;;;;;;;;;;;;;;29.29;21.45;100734.13;5095249;28;1138;-17
2023/03/21 05:49:03;;;;;;;;;;;;;;;29.17;21.72;100736.53;5094395;28;1902;-17
2023/03/21 05:51:29;;;;;;;;;;;;;;;29.24;21.83;100748.28;5094596;28;1075;-17
2023/03/21 05:53:54;;;;;;;;;;;;;;;27.19;24.15;100748.81;5091050;28;1204;-18
2023/03/21 05:56:20;;;;;;;;;;;;;;;27.42;24.28;100760.56;5077901;28;1309;-17
2023/03/21 05:58:52;;;;;;;;;;;;;;;29.42;21.66;100768.59;5095134;28;1213;-17
2023/03/21 06:01:18;;;;;;;;;;;;;;;26.92;24.65;100766.38;5094476;28;1482;-17
2023/03/21 06:03:52;;;;;;;;;;;;;;;26.50;25.36;100769.38;5094119;28;1347;-17
2023/03/21 06:06:22;;;;;;;;;;;;;;;28.71;22.97;100771.97;5078895;28;1320;-17
2023/03/21 06:08:53;;;;;;;;;;;;;;;28.88;22.63;100769.00;5086225;28;1917;-17
2023/03/21 06:11:26;;;;;;;;;;;;;;;29.18;22.28;100759.88;5077338;28;1168;-17
2023/03/21 06:14:06;;;;;;;;;;;;;;;28.00;23.80;100754.53;5093829;28;1161;-16
2023/03/21 06:16:31;;;;;;;;;;;;;;;26.88;25.02;100755.97;5087158;28;1163;-17
2023/03/21 06:18:57;;;;;;;;;;;;;;;26.58;25.91;100752.28;5073998;28;881;-17
2023/03/21 06:21:39;;;;;;;;;;;;;;;26.39;26.23;100747.19;5081146;28;1238;-17
2023/03/21 06:24:06;;;;;;;;;;;;;;;26.33;26.29;100749.75;5080800;28;1363;-17
2023/03/21 06:26:32;;;;;;;;;;;;;;;26.29;26.61;100744.69;5080616;28;1087;-16
2023/03/21 06:28:57;;;;;;;;;;;;;;;26.15;27.23;100753.53;5073767;28;1910;-16
2023/03/21 06:31:24;;;;;;;;;;;;;;;26.22;26.91;100748.28;5060648;28;1310;-17
2023/03/21 06:33:51;;;;;;;;;;;;;;;26.21;26.75;100747.44;5062578;28;1171;-17
2023/03/21 06:36:17;;;;;;;;;;;;;;;26.25;27.28;100764.97;5060755;28;1287;-16
2023/03/21 06:38:42;;;;;;;;;;;;;;;26.29;27.25;100765.44;5060870;28;1246;-16
2023/03/21 06:41:08;;;;;;;;;;;;;;;26.31;26.60;100758.00;5059731;28;1231;-16
2023/03/21 06:43:39;;;;;;;;;;;;;;;26.24;27.63;100765.13;5060368;28;1574;-16
2023/03/21 06:46:05;;;;;;;;;;;;;;;26.28;27.42;100758.34;5079104;28;1157;-16
2023/03/21 06:48:31;;;;;;;;;;;;;;;26.25;27.76;100750.63;5080377;28;1906;-16
2023/03/21 06:50:56;;;;;;;;;;;;;;;26.20;26.81;100747.63;5080039;28;1031;-16
2023/03/21 06:53:26;;;;;;;;;;;;;;;26.13;26.83;100752.88;5073077;28;1216;-16
2023/03/21 06:56:12;;;;;;;;;;;;;;;26.14;26.96;100749.19;5060067;28;1100;-15
2023/03/21 06:58:39;;;;;;;;;;;;;;;26.08;26.97;100758.78;5062193;28;1252;-15
2023/03/21 07:01:08;;;;;;;;;;;;;;;26.11;26.67;100749.53;5080227;28;1194;-16
2023/03/21 07:03:42;;;;;;;;;;;;;;;26.11;27.85;100733.34;5063787;28;1200;-16
2023/03/21 07:06:10;;;;;;;;;;;;;;;25.90;27.26;100734.78;5059792;28;1207;-16
2023/03/21 07:08:37;;;;;;;;;;;;;;;26.01;27.76;100741.63;5076054;28;1910;-16
2023/03/21 07:11:03;;;;;;;;;;;;;;;26.08;27.68;100747.16;5079750;28;1118;-16
2023/03/21 07:13:29;;;;;;;;;;;;;;;26.02;27.03;100738.78;5097592;28;1145;-16
2023/03/21 07:16:01;;;;;;;;;;;;;;;25.95;27.04;100736.94;5079809;28;1338;-16
2023/03/21 07:18:27;;;;;;;;;;;;;;;25.59;27.10;100744.44;5085666;28;1007;-16
2023/03/21 07:20:52;;;;;;;;;;;;;;;25.65;26.77;100756.44;5073230;28;1234;-16
2023/03/21 07:23:19;;;;;;;;;;;;;;;25.70;27.26;100764.00;5059263;28;1308;-17
2023/03/21 07:25:46;;;;;;;;;;;;;;;25.73;27.01;100745.63;5092587;28;1139;-16
2023/03/21 07:28:11;;;;;;;;;;;;;;;25.79;27.12;100736.03;5079614;28;1971;-17
2023/03/21 07:30:37;;;;;;;;;;;;;;;25.79;26.81;100744.09;5084887;28;1038;-16
2023/03/21 07:33:02;;;;;;;;;;;;;;;25.79;27.10;100747.63;5084881;28;1126;-16
2023/03/21 07:35:28;;;;;;;;;;;;;;;25.77;27.33;100740.75;5078713;28;1142;-16
2023/03/21 07:37:54;;;;;;;;;;;;;;;25.80;27.23;100745.78;5079127;28;1471;-16
2023/03/21 07:40:20;;;;;;;;;;;;;;;25.78;27.10;100740.56;5067412;28;1210;-17
2023/03/21 07:42:47;;;;;;;;;;;;;;;25.74;27.30;100741.91;5059270;28;1262;-17
2023/03/21 07:45:20;;;;;;;;;;;;;;;25.74;27.50;100746.47;5071718;28;1351;-16
2023/03/21 07:47:46;;;;;;;;;;;;;;;25.72;27.37;100729.63;5056324;28;1975;-17
2023/03/21 07:50:12;;;;;;;;;;;;;;;25.51;27.80;100725.63;5076071;28;1216;-16
2023/03/21 07:52:37;;;;;;;;;;;;;;;25.68;27.70;100723.75;5069838;28;1067;-16
2023/03/21 07:55:03;;;;;;;;;;;;;;;25.70;27.54;100720.88;5068175;28;1083;-16
2023/03/21 07:57:28;;;;;;;;;;;;;;;25.58;27.72;100718.53;5096623;28;1050;-16
2023/03/21 07:59:54;;;;;;;;;;;;;;;25.53;27.92;100712.81;5088991;28;1046;-16
2023/03/21 08:02:19;;;;;;;;;;;;;;;25.51;27.85;100704.91;5077484;28;1263;-16
2023/03/21 08:04:45;;;;;;;;;;;;;;;25.59;27.76;100701.34;5097275;28;1117;-16
2023/03/21 08:07:11;;;;;;;;;;;;;;;25.62;27.71;100705.56;5082910;28;1157;-16
2023/03/21 08:09:36;;;;;;;;;;;;;;;25.50;27.78;100697.03;5084297;28;1910;-16
2023/03/21 08:12:02;;;;;;;;;;;;;;;25.59;27.94;100704.03;5081700;28;1230;-16
2023/03/21 08:14:28;;;;;;;;;;;;;;;25.25;28.34;100707.84;5074672;28;1030;-15
2023/03/21 08:16:53;;;;;;;;;;;;;;;25.31;28.23;100729.56;5083393;28;1107;-15
2023/03/21 08:19:20;;;;;;;;;;;;;;;25.44;28.17;100736.28;5081249;28;1119;-16
2023/03/21 08:21:47;;;;;;;;;;;;;;;25.41;28.16;100733.91;5075954;28;1084;-16
2023/03/21 08:24:12;;;;;;;;;;;;;;;25.20;28.35;100729.91;5076832;28;1277;-16
2023/03/21 08:26:38;;;;;;;;;;;;;;;25.15;28.58;100721.50;5076029;28;1278;-15
2023/03/21 08:29:03;;;;;;;;;;;;;;;25.04;28.71;100730.78;5076382;28;1991;-15
2023/03/21 08:31:29;;;;;;;;;;;;;;;25.18;28.34;100726.53;5075783;28;1563;-15
2023/03/21 08:33:54;;;;;;;;;;;;;;;24.48;29.46;100721.47;5076172;28;1246;-16
2023/03/21 08:36:23;;;;;;;;;;;;;;;23.45;30.93;100718.72;5075859;28;1195;-16
2023/03/21 08:38:53;;;;;;;;;;;;;;;23.89;30.65;100719.59;5076455;28;1286;-16
2023/03/21 08:41:20;;;;;;;;;;;;;;;24.46;29.89;100726.16;5090650;28;1135;-16
2023/03/21 08:43:49;;;;;;;;;;;;;;;24.85;29.23;100740.84;5079055;28;955;-15
2023/03/21 08:46:15;;;;;;;;;;;;;;;25.02;28.89;100743.56;5091308;28;1079;-15
2023/03/21 08:48:41;;;;;;;;;;;;;;;25.12;28.71;100738.84;5095545;28;1902;-16
2023/03/21 08:51:06;;;;;;;;;;;;;;;25.09;28.79;100735.66;5095773;28;1089;-16
2023/03/21 08:53:32;;;;;;;;;;;;;;;25.09;28.82;100736.47;5096238;28;1086;-16
2023/03/21 08:55:57;;;;;;;;;;;;;;;25.17;28.58;100735.63;5089373;28;1032;-16
2023/03/21 08:58:23;;;;;;;;;;;;;;;25.13;28.63;100739.66;5075785;28;1301;-16
2023/03/21 09:00:48;;;;;;;;;;;;;;;25.19;28.72;100739.00;5085552;28;1100;-15
2023/03/21 09:03:14;;;;;;;;;;;;;;;25.11;28.60;100714.78;5095627;28;1034;-15
2023/03/21 09:05:39;;;;;;;;;;;;;;;25.20;28.54;100705.69;5095989;28;1158;-16
2023/03/21 09:08:05;;;;;;;;;;;;;;;25.12;28.63;100711.06;5079973;28;1984;-16
2023/03/21 09:10:30;;;;;;;;;;;;;;;25.21;28.44;100709.22;5066465;28;1093;-15
2023/03/21 09:12:56;;;;;;;;;;;;;;;25.13;28.61;100715.44;5090101;28;1214;-15
2023/03/21 09:15:23;;;;;;;;;;;;;;;25.06;28.85;100715.28;5095642;28;1090;-16
2023/03/21 09:17:51;;;;;;;;;;;;;;;24.99;28.81;100731.25;5086054;28;950;-16
2023/03/21 09:20:19;;;;;;;;;;;;;;;25.02;28.73;100728.25;5078997;28;842;-16
2023/03/21 09:22:46;;;;;;;;;;;;;;;25.03;28.74;100727.25;5095066;28;1071;-15
2023/03/21 09:25:12;;;;;;;;;;;;;;;25.05;28.94;100725.22;5095276;28;944;-16
2023/03/21 09:27:38;;;;;;;;;;;;;;;24.99;28.94;100728.56;5091156;28;1914;-16
2023/03/21 09:30:04;;;;;;;;;;;;;;;25.11;28.82;100736.31;5086241;28;1179;-15
2023/03/21 09:32:31;;;;;;;;;;;;;;;25.03;28.84;100738.00;5079659;28;949;-16
2023/03/21 09:34:56;;;;;;;;;;;;;;;25.06;28.87;100737.66;5095648;28;1119;-15
2023/03/21 09:37:23;;;;;;;;;;;;;;;24.98;29.08;100740.34;5091871;28;1178;-16
2023/03/21 09:39:50;;;;;;;;;;;;;;;24.89;29.07;100738.66;5084834;28;1063;-15
2023/03/21 09:42:16;;;;;;;;;;;;;;;25.02;28.96;100739.03;5094616;28;1126;-15
2023/03/21 09:45:03;;;;;;;;;;;;;;;25.00;28.97;100748.25;5075554;28;1008;-15
2023/03/21 09:47:33;;;;;;;;;;;;;;;25.00;29.04;100729.41;5051326;28;1983;-15
2023/03/21 09:50:12;;;;;;;;;;;;;;;25.05;28.86;100736.00;5077991;28;1114;-16
2023/03/21 09:52:46;;;;;;;;;;;;;;;25.06;28.94;100732.28;5095758;28;1102;-15
2023/03/21 09:55:18;;;;;;;;;;;;;;;24.98;29.05;100743.03;5071311;28;1048;-16
2023/03/21 09:57:45;;;;;;;;;;;;;;;25.05;28.67;100737.84;5073186;28;1127;-16
2023/03/21 10:00:19;;;;;;;;;;;;;;;25.06;28.87;100740.34;5080471;28;1087;-15
2023/03/21 10:02:48;;;;;;;;;;;;;;;25.04;28.88;100742.38;5099411;28;1184;-16
2023/03/21 10:05:24;;;;;;;;;;;;;;;24.99;28.82;100754.66;5098627;28;1082;-16
2023/03/21 10:08:03;;;;;;;;;;;;;;;25.09;28.66;100747.22;5086930;28;1909;-16
2023/03/21 10:10:31;;;;;;;;;;;;;;;25.09;29.02;100743.72;5062926;28;1120;-15
2023/03/21 10:12:56;;;;;;;;;;;;;;;25.04;28.78;100739.66;5076404;28;1052;-16
2023/03/21 10:15:23;;;;;;;;;;;;;;;25.06;28.97;100737.66;5098921;28;1142;-16
2023/03/21 10:18:09;;;;;;;;;;;;;;;25.05;28.77;100743.22;5098414;28;1030;-15
2023/03/21 10:20:35;;;;;;;;;;;;;;;25.14;28.73;100736.81;5082529;28;1104;-16
2023/03/21 10:23:02;;;;;;;;;;;;;;;24.92;29.17;100741.03;5086541;28;1214;-15
2023/03/21 10:25:32;;;;;;;;;;;;;;;25.09;28.87;100733.78;5079122;28;1171;-16
2023/03/21 10:27:57;;;;;;;;;;;;;;;25.12;28.69;100748.75;5080753;28;1910;-16
2023/03/21 10:30:32;;;;;;;;;;;;;;;25.07;28.72;100746.59;5097835;28;1123;-16
2023/03/21 10:32:58;;;;;;;;;;;;;;;25.12;28.50;100743.38;5087872;28;1323;-16
2023/03/21 10:35:24;;;;;;;;;;;;;;;25.19;28.44;100744.38;5078459;28;1247;-16
2023/03/21 10:37:50;;;;;;;;;;;;;;;25.15;28.49;100743.88;5078679;28;1262;-15
2023/03/21 10:40:15;;;;;;;;;;;;;;;25.12;28.45;100746.91;5078652;28;1222;-15
2023/03/21 10:42:42;;;;;;;;;;;;;;;25.00;28.86;100748.25;5078518;28;1294;-16
2023/03/21 10:45:16;;;;;;;;;;;;;;;24.97;28.64;100740.53;5078587;28;1055;-16
2023/03/21 10:47:41;;;;;;;;;;;;;;;24.87;28.78;100740.66;5098362;28;1886;-16
2023/03/21 10:50:08;;;;;;;;;;;;;;;24.96;28.59;100734.28;5065244;28;1278;-15
2023/03/21 10:52:33;;;;;;;;;;;;;;;25.03;28.60;100731.78;5085794;28;1063;-15
2023/03/21 10:55:08;;;;;;;;;;;;;;;24.97;28.45;100727.06;5096206;28;1242;-16
2023/03/21 10:57:36;;;;;;;;;;;;;;;25.01;28.44;100717.63;5080263;28;1286;-16
2023/03/21 11:00:06;;;;;;;;;;;;;;;25.00;28.67;100724.03;5097224;28;1394;-16
2023/03/21 11:02:33;;;;;;;;;;;;;;;24.97;28.80;100735.16;5097562;28;1213;-15
2023/03/21 11:05:03;;;;;;;;;;;;;;;25.05;28.47;100725.22;5097663;28;1046;-16
2023/03/21 11:07:30;;;;;;;;;;;;;;;25.02;28.61;100730.09;5092283;28;1897;-16
2023/03/21 11:09:59;;;;;;;;;;;;;;;25.27;28.48;100738.16;5088657;28;1343;-16
2023/03/21 11:12:31;;;;;;;;;;;;;;;25.18;28.61;100731.94;5097956;28;1058;-15
2023/03/21 11:14:56;;;;;;;;;;;;;;;25.19;28.59;100734.44;5097107;28;1154;-16
2023/03/21 11:17:23;;;;;;;;;;;;;;;25.25;28.58;100732.94;5079770;28;1083;-16
2023/03/21 11:19:59;;;;;;;;;;;;;;;25.15;28.89;100727.72;5090801;28;1166;-16
2023/03/21 11:22:26;;;;;;;;;;;;;;;25.09;28.82;100724.88;5077587;28;1077;-16
2023/03/21 11:24:52;;;;;;;;;;;;;;;25.16;28.80;100721.31;5077387;28;1223;-16
2023/03/21 11:27:18;;;;;;;;;;;;;;;25.28;28.76;100716.44;5076284;28;1126;-15
2023/03/21 11:29:47;;;;;;;;;;;;;;;25.29;28.52;100719.97;5096815;28;1988;-15
2023/03/21 11:32:31;;;;;;;;;;;;;;;25.25;28.77;100722.16;5087731;28;1051;-15
2023/03/21 11:35:01;;;;;;;;;;;;;;;25.15;28.76;100716.13;5090694;28;1035;-15
2023/03/21 11:37:27;;;;;;;;;;;;;;;25.27;28.69;100716.59;5097572;28;1103;-15
2023/03/21 11:39:53;;;;;;;;;;;;;;;25.16;28.80;100715.94;5097363;28;1210;-15
2023/03/21 11:42:25;;;;;;;;;;;;;;;25.23;28.82;100709.88;5060505;28;1278;-15
2023/03/21 11:44:56;;;;;;;;;;;;;;;25.22;28.74;100719.81;5076946;28;966;-15
2023/03/21 11:47:22;;;;;;;;;;;;;;;25.11;28.78;100706.72;5097110;28;1108;-15
2023/03/21 11:49:47;;;;;;;;;;;;;;;25.14;28.73;100701.81;5097838;28;1914;-14
2023/03/21 11:52:33;;;;;;;;;;;;;;;25.28;28.44;100705.66;5097505;28;1158;-14
2023/03/21 11:55:08;;;;;;;;;;;;;;;25.17;28.69;100703.34;5079735;28;1416;-15
2023/03/21 11:57:39;;;;;;;;;;;;;;;25.08;28.79;100694.44;5077624;28;966;-15
2023/03/21 12:00:13;;;;;;;;;;;;;;;25.19;28.57;100690.56;5091990;28;1055;-15
2023/03/21 12:02:38;;;;;;;;;;;;;;;25.01;28.77;100694.25;5077046;28;1191;-15
2023/03/21 12:05:24;;;;;;;;;;;;;;;25.12;28.77;100684.16;5077156;28;1219;-15
2023/03/21 12:08:08;;;;;;;;;;;;;;;25.07;28.84;100672.03;5075715;28;1907;-15
2023/03/21 12:10:52;;;;;;;;;;;;;;;25.03;28.92;100678.78;5076427;28;1223;-15
2023/03/21 12:13:33;;;;;;;;;;;;;;;25.04;28.92;100680.47;5076855;28;1274;-15
2023/03/21 12:16:21;;;;;;;;;;;;;;;25.12;28.86;100665.31;5057856;28;1164;-14
2023/03/21 12:18:46;;;;;;;;;;;;;;;25.04;29.00;100675.09;5041723;28;1220;-15
2023/03/21 12:21:47;;;;;;;;;;;;;;;25.11;28.81;100680.63;5081481;28;1206;-15
2023/03/21 12:24:22;;;;;;;;;;;;;;;25.14;28.96;100676.75;5032388;28;1354;-15
2023/03/21 12:26:50;;;;;;;;;;;;;;;25.12;29.05;100670.69;5069310;28;1305;-15
2023/03/21 12:29:28;;;;;;;;;;;;;;;25.09;28.99;100671.88;5095664;28;2099;-15
2023/03/21 12:31:54;;;;;;;;;;;;;;;25.17;28.93;100677.22;5093108;28;1281;-15
2023/03/21 12:34:38;;;;;;;;;;;;;;;25.08;28.95;100672.88;5076365;28;1561;-15
2023/03/21 12:37:07;;;;;;;;;;;;;;;25.06;28.92;100672.22;5076372;28;1223;-15
2023/03/21 12:39:32;;;;;;;;;;;;;;;25.09;29.03;100669.19;5071442;28;1230;-15
2023/03/21 12:42:17;;;;;;;;;;;;;;;25.05;29.00;100667.84;5096532;28;1111;-15
2023/03/21 12:44:44;;;;;;;;;;;;;;;25.00;28.92;100657.59;5085514;28;1059;-15
2023/03/21 12:47:14;;;;;;;;;;;;;;;24.97;29.28;100662.50;5060914;28;1234;-15
2023/03/21 12:49:40;;;;;;;;;;;;;;;25.04;29.07;100666.19;5078171;28;1902;-15
2023/03/21 12:52:10;;;;;;;;;;;;;;;24.94;29.25;100653.75;5095788;28;1129;-13
2023/03/21 12:54:37;;;;;;;;;;;;;;;24.93;29.16;100662.84;5078069;28;1090;-14
2023/03/21 12:57:18;;;;;;;;;;;;;;;24.96;29.10;100658.94;5060169;28;1082;-15
2023/03/21 12:59:49;;;;;;;;;;;;;;;24.88;29.36;100650.84;5080502;28;1504;-14
2023/03/21 13:02:15;;;;;;;;;;;;;;;25.01;29.25;100653.03;5077056;28;1002;-14
2023/03/21 13:04:43;;;;;;;;;;;;;;;24.96;29.31;100653.56;5096205;28;1138;-15
2023/03/21 13:07:10;;;;;;;;;;;;;;;24.98;29.14;100651.56;5094206;28;1158;-15
2023/03/21 13:09:36;;;;;;;;;;;;;;;24.89;29.30;100648.00;5080811;28;1979;-14
2023/03/21 13:12:06;;;;;;;;;;;;;;;24.99;29.33;100642.44;5091046;28;1047;-15
2023/03/21 13:14:33;;;;;;;;;;;;;;;25.07;29.12;100636.25;5096220;28;1039;-15
2023/03/21 13:17:25;;;;;;;;;;;;;;;25.07;29.08;100636.25;5095705;28;1027;-15
2023/03/21 13:19:53;;;;;;;;;;;;;;;24.97;29.27;100627.50;5048166;28;1094;-14
2023/03/21 13:22:25;;;;;;;;;;;;;;;24.98;29.17;100619.25;5057551;28;989;-15
2023/03/21 13:24:57;;;;;;;;;;;;;;;24.91;29.31;100632.56;5096135;28;1095;-15
2023/03/21 13:27:23;;;;;;;;;;;;;;;24.87;29.44;100639.28;5075021;28;1182;-15
2023/03/21 13:29:52;;;;;;;;;;;;;;;24.93;29.25;100640.44;5075627;28;1903;-15
2023/03/21 13:32:21;;;;;;;;;;;;;;;24.88;29.27;100638.25;5075260;28;1043;-15
2023/03/21 13:34:52;;;;;;;;;;;;;;;24.88;29.38;100634.72;5084864;28;1183;-15
2023/03/21 13:37:18;;;;;;;;;;;;;;;24.89;29.39;100636.41;5080947;28;1090;-15
2023/03/21 13:39:44;;;;;;;;;;;;;;;24.94;29.34;100632.22;5074014;28;1087;-15
2023/03/21 13:42:11;;;;;;;;;;;;;;;24.78;29.34;100638.44;5079565;28;1298;-15
2023/03/21 13:44:42;;;;;;;;;;;;;;;24.80;29.57;100635.56;5060698;28;1211;-15
2023/03/21 13:47:26;;;;;;;;;;;;;;;24.92;29.47;100638.78;5078802;28;1115;-15
2023/03/21 13:50:10;;;;;;;;;;;;;;;24.87;29.42;100638.41;5079376;28;2046;-15
2023/03/21 13:52:35;;;;;;;;;;;;;;;24.84;29.46;100631.50;5079122;28;1175;-15
2023/03/21 13:55:01;;;;;;;;;;;;;;;24.91;29.32;100637.09;5078940;28;1180;-15
2023/03/21 13:57:28;;;;;;;;;;;;;;;24.90;29.34;100630.00;5074360;28;1262;-15
2023/03/21 14:00:14;;;;;;;;;;;;;;;24.79;29.47;100631.22;5098820;28;1158;-15
2023/03/21 14:02:49;;;;;;;;;;;;;;;24.95;29.25;100616.91;5099699;28;1849;-15
2023/03/21 14:05:21;;;;;;;;;;;;;;;24.84;29.46;100628.81;5081097;28;1134;-15
2023/03/21 14:07:47;;;;;;;;;;;;;;;24.72;29.73;100625.66;5080744;28;1918;-15
2023/03/21 14:10:33;;;;;;;;;;;;;;;24.76;29.52;100635.06;5069021;28;1336;-15
2023/03/21 14:12:59;;;;;;;;;;;;;;;24.94;29.19;100626.81;5097718;28;1155;-15
2023/03/21 14:15:26;;;;;;;;;;;;;;;24.80;29.51;100624.81;5080411;28;1396;-15
2023/03/21 14:17:52;;;;;;;;;;;;;;;24.86;29.47;100626.81;5098804;28;1367;-15
2023/03/21 14:20:27;;;;;;;;;;;;;;;24.96;29.45;100621.28;5098998;28;1348;-15
2023/03/21 14:22:53;;;;;;;;;;;;;;;24.79;29.29;100626.66;5073992;28;1341;-15
2023/03/21 14:25:19;;;;;;;;;;;;;;;24.71;29.57;100623.97;5086096;28;1406;-15
2023/03/21 14:27:46;;;;;;;;;;;;;;;24.88;29.48;100623.94;5096734;28;1945;-15
2023/03/21 14:30:20;;;;;;;;;;;;;;;25.06;29.12;100619.25;5097547;28;1281;-15
2023/03/21 14:32:46;;;;;;;;;;;;;;;25.02;29.14;100619.75;5094793;28;1134;-15
2023/03/21 14:35:12;;;;;;;;;;;;;;;25.03;29.20;100613.34;5072895;28;1415;-15
2023/03/21 14:37:38;;;;;;;;;;;;;;;25.15;29.04;100619.22;5085284;28;1336;-15
2023/03/21 14:40:07;;;;;;;;;;;;;;;24.97;29.25;100620.28;5083301;28;1265;-15
2023/03/21 14:42:34;;;;;;;;;;;;;;;24.99;29.23;100620.09;5079176;28;1297;-15
2023/03/21 14:45:02;;;;;;;;;;;;;;;24.93;29.30;100619.78;5090708;28;1335;-15
2023/03/21 14:47:28;;;;;;;;;;;;;;;25.12;29.01;100617.72;5073825;28;1434;-15
2023/03/21 14:49:54;;;;;;;;;;;;;;;25.09;29.20;100619.91;5098082;28;1902;-15
2023/03/21 14:52:21;;;;;;;;;;;;;;;24.93;29.46;100614.41;5079706;28;1151;-15
2023/03/21 14:54:46;;;;;;;;;;;;;;;25.13;29.04;100615.84;5098486;28;1355;-15
2023/03/21 14:57:13;;;;;;;;;;;;;;;25.07;29.04;100612.00;5075607;28;1376;-15
2023/03/21 14:59:38;;;;;;;;;;;;;;;25.02;29.36;100617.06;5079528;28;1391;-15
2023/03/21 15:02:05;;;;;;;;;;;;;;;25.01;29.23;100616.22;5098259;28;1174;-15
2023/03/21 15:04:30;;;;;;;;;;;;;;;25.02;29.25;100617.06;5080475;28;1332;-15
2023/03/21 15:07:03;;;;;;;;;;;;;;;25.16;29.15;100623.56;5098058;28;1053;-15
2023/03/21 15:09:29;;;;;;;;;;;;;;;25.04;29.39;100618.56;5091371;28;1898;-15
2023/03/21 15:11:54;;;;;;;;;;;;;;;25.21;29.35;100615.00;5094316;28;1317;-15
2023/03/21 15:14:23;;;;;;;;;;;;;;;25.17;29.41;100612.63;5097559;28;1336;-15
2023/03/21 15:16:48;;;;;;;;;;;;;;;25.07;29.51;100612.84;5058539;28;1074;-15
2023/03/21 15:19:15;;;;;;;;;;;;;;;25.06;29.68;100611.16;5085161;28;1098;-15
2023/03/21 15:21:42;;;;;;;;;;;;;;;25.04;29.75;100615.88;5082882;28;1375;-15
2023/03/21 15:24:19;;;;;;;;;;;;;;;25.07;29.67;100612.00;5079986;28;1144;-15
2023/03/21 15:26:45;;;;;;;;;;;;;;;25.10;29.57;100611.66;5086457;28;1019;-15
2023/03/21 15:29:10;;;;;;;;;;;;;;;25.05;29.45;100614.03;5094640;28;1905;-15
2023/03/21 15:31:37;;;;;;;;;;;;;;;25.03;29.59;100616.91;5079928;28;1024;-14
2023/03/21 15:34:03;;;;;;;;;;;;;;;24.90;29.84;100616.56;5069859;28;1278;-15
2023/03/21 15:36:32;;;;;;;;;;;;;;;25.10;29.37;100613.50;5077450;28;1078;-15
2023/03/21 15:39:02;;;;;;;;;;;;;;;25.00;29.48;100613.69;5094041;28;1102;-15
2023/03/21 15:41:28;;;;;;;;;;;;;;;25.02;29.53;100626.00;5052372;28;1165;-15
2023/03/21 15:44:00;;;;;;;;;;;;;;;25.10;29.57;100626.97;5082810;28;1190;-15
2023/03/21 15:46:31;;;;;;;;;;;;;;;25.08;29.15;100611.00;5088938;28;1039;-15
2023/03/21 15:49:26;;;;;;;;;;;;;;;25.02;29.33;100611.69;5097089;28;1906;-16
2023/03/21 15:51:56;;;;;;;;;;;;;;;24.90;29.64;100611.16;5039782;28;1403;-15
2023/03/21 15:54:23;;;;;;;;;;;;;;;25.05;29.37;100605.97;5093561;28;1321;-15
2023/03/21 15:56:53;;;;;;;;;;;;;;;24.92;29.73;100601.94;5079103;28;1305;-15
2023/03/21 15:59:19;;;;;;;;;;;;;;;24.96;29.59;100601.63;5085227;28;1433;-15
2023/03/21 16:01:45;;;;;;;;;;;;;;;25.01;29.42;100596.53;5078901;28;1385;-15
2023/03/21 16:04:12;;;;;;;;;;;;;;;25.01;29.46;100597.38;5066548;28;1258;-15
2023/03/21 16:06:38;;;;;;;;;;;;;;;25.02;29.30;100603.63;5073992;28;1076;-15
2023/03/21 16:09:11;;;;;;;;;;;;;;;25.00;29.54;100611.00;5083829;28;1909;-15
2023/03/21 16:11:36;;;;;;;;;;;;;;;25.10;29.09;100608.97;5066854;28;1080;-15
2023/03/21 16:14:02;;;;;;;;;;;;;;;25.10;29.21;100617.03;5070376;28;1139;-15
2023/03/21 16:16:28;;;;;;;;;;;;;;;25.02;29.27;100623.31;5077142;28;1305;-15
2023/03/21 16:18:54;;;;;;;;;;;;;;;24.98;29.46;100621.09;5068242;28;1395;-15
2023/03/21 16:21:20;;;;;;;;;;;;;;;24.90;29.58;100620.13;5096543;28;1379;-14
2023/03/21 16:23:46;;;;;;;;;;;;;;;25.08;29.39;100621.75;5082166;28;1244;-15
2023/03/21 16:26:12;;;;;;;;;;;;;;;25.06;29.43;100624.63;5096259;28;1249;-15
2023/03/21 16:28:37;;;;;;;;;;;;;;;25.00;29.64;100627.16;5060485;28;1971;-15
2023/03/21 16:31:03;;;;;;;;;;;;;;;25.08;29.44;100621.75;5086573;28;1277;-14
2023/03/21 16:33:29;;;;;;;;;;;;;;;25.04;29.33;100621.25;5094404;28;1246;-16
2023/03/21 16:35:56;;;;;;;;;;;;;;;25.05;29.44;100633.72;5092636;28;1309;-15
2023/03/21 16:38:22;;;;;;;;;;;;;;;25.06;29.39;100627.31;5096440;28;1288;-14
2023/03/21 16:40:47;;;;;;;;;;;;;;;25.02;29.45;100635.91;5079575;28;1125;-15
2023/03/21 16:43:13;;;;;;;;;;;;;;;25.00;29.48;100637.91;5086091;28;1289;-15
2023/03/21 16:45:38;;;;;;;;;;;;;;;25.04;29.47;100633.88;5094772;28;1086;-15
2023/03/21 16:48:04;;;;;;;;;;;;;;;24.97;29.69;100633.75;5078457;28;1974;-15
2023/03/21 16:50:30;;;;;;;;;;;;;;;24.98;29.64;100646.16;5086550;28;1039;-15
2023/03/21 16:52:56;;;;;;;;;;;;;;;25.04;29.58;100640.09;5078532;28;1179;-15
2023/03/21 16:55:22;;;;;;;;;;;;;;;25.18;29.56;100633.16;5095898;28;1155;-15
2023/03/21 16:57:47;;;;;;;;;;;;;;;25.08;31.35;100637.91;5094104;28;1125;-15
2023/03/21 17:00:16;;;;;;;;;;;;;;;25.27;30.88;100639.38;5076368;28;1043;-15
2023/03/21 17:02:41;;;;;;;;;;;;;;;25.16;31.10;100637.03;5092703;28;1098;-15
2023/03/21 17:05:07;;;;;;;;;;;;;;;25.06;30.77;100640.78;5077792;28;1123;-15
2023/03/21 17:07:32;;;;;;;;;;;;;;;25.01;30.54;100645.81;5095923;28;1146;-15
2023/03/21 17:09:58;;;;;;;;;;;;;;;24.70;29.73;100643.81;5093946;28;1987;-15
2023/03/21 17:12:23;;;;;;;;;;;;;;;24.45;29.90;100633.06;5096008;28;1062;-15
2023/03/21 17:14:49;;;;;;;;;;;;;;;24.34;29.88;100628.84;5096014;28;1305;-15
2023/03/21 17:17:15;;;;;;;;;;;;;;;24.31;29.83;100624.66;5096471;28;1066;-15
2023/03/21 17:19:40;;;;;;;;;;;;;;;24.37;29.49;100609.72;5095929;28;1241;-15
2023/03/21 17:22:06;;;;;;;;;;;;;;;24.21;29.69;100586.34;5093224;28;1134;-14
2023/03/21 17:24:32;;;;;;;;;;;;;;;24.08;29.78;100570.69;5081322;28;1230;-15
2023/03/21 17:26:58;;;;;;;;;;;;;;;23.97;29.75;100566.50;5095632;28;1292;-15
2023/03/21 17:29:24;;;;;;;;;;;;;;;24.02;29.93;100574.06;5095255;28;1926;-14
2023/03/21 17:31:49;;;;;;;;;;;;;;;24.06;29.97;100573.53;5095854;28;1136;-14
2023/03/21 17:34:15;;;;;;;;;;;;;;;24.20;29.98;100576.59;5092305;28;1166;-14
2023/03/21 17:36:41;;;;;;;;;;;;;;;26.34;27.00;100576.97;5076276;28;1056;-15
2023/03/21 17:39:16;;;;;;;;;;;;;;;28.03;24.81;100572.97;5095234;28;1087;-15
2023/03/21 17:41:42;;;;;;;;;;;;;;;28.43;24.02;100582.50;5077540;28;1198;-15
2023/03/21 17:44:07;;;;;;;;;;;;;;;28.19;24.41;100581.88;5095716;28;1195;-15
2023/03/21 17:46:35;;;;;;;;;;;;;;;28.08;24.88;100583.22;5090733;28;1074;-14
2023/03/21 17:49:00;;;;;;;;;;;;;;;28.19;24.41;100584.56;5083524;28;1983;-15
2023/03/21 17:51:28;;;;;;;;;;;;;;;28.31;24.45;100593.00;5067953;28;1142;-15
2023/03/21 17:53:54;;;;;;;;;;;;;;;28.56;24.39;100598.00;5084033;28;1186;-15
2023/03/21 17:56:28;;;;;;;;;;;;;;;28.56;24.13;100595.31;5095366;28;1030;-16
2023/03/21 17:58:54;;;;;;;;;;;;;;;28.71;23.88;100612.25;5088016;28;1062;-14
2023/03/21 18:01:20;;;;;;;;;;;;;;;28.82;23.85;100618.16;5078436;28;1058;-15